sensor_id;sensor_type;location;lat;lon;timestamp;P1;durP1;ratioP1;P2;durP2;ratioP2
7575;SDS011;3829;50.798;4.358;2023-01-15T00:01:00;3.97;;;1.83;;
7575;SDS011;3829;50.798;4.358;2023-01-15T00:03:27;7.03;;;1.60;;
7575;SDS011;3829;50.798;4.358;2023-01-15T00:05:53;7.73;;;1.57;;
7575;SDS011;3829;50.798;4.358;2023-01-15T00:08:18;4.20;;;1.57;;
7575;SDS011;3829;50.798;4.358;2023-01-15T00:10:44;8.93;;;2.00;;
7575;SDS011;3829;50.798;4.358;2023-01-15T00:13:10;7.63;;;1.60;;
7575;SDS011;3829;50.798;4.358;2023-01-15T00:15:36;6.27;;;1.50;;
7575;SDS011;3829;50.798;4.358;2023-01-15T00:18:02;5.17;;;1.40;;
7575;SDS011;3829;50.798;4.358;2023-01-15T00:20:28;10.30;;;1.73;;
7575;SDS011;3829;50.798;4.358;2023-01-15T00:22:53;8.20;;;1.40;;
7575;SDS011;3829;50.798;4.358;2023-01-15T00:25:19;6.20;;;1.70;;
7575;SDS011;3829;50.798;4.358;2023-01-15T00:28:03;3.23;;;1.60;;
7575;SDS011;3829;50.798;4.358;2023-01-15T00:30:29;10.73;;;1.60;;
7575;SDS011;3829;50.798;4.358;2023-01-15T00:32:55;4.60;;;1.47;;
7575;SDS011;3829;50.798;4.358;2023-01-15T00:35:22;11.40;;;2.43;;
7575;SDS011;3829;50.798;4.358;2023-01-15T00:37:48;5.60;;;1.40;;
7575;SDS011;3829;50.798;4.358;2023-01-15T00:40:15;3.90;;;1.30;;
7575;SDS011;3829;50.798;4.358;2023-01-15T00:42:42;8.93;;;1.93;;
7575;SDS011;3829;50.798;4.358;2023-01-15T00:45:08;15.90;;;2.10;;
7575;SDS011;3829;50.798;4.358;2023-01-15T00:47:36;5.60;;;1.43;;
7575;SDS011;3829;50.798;4.358;2023-01-15T00:50:03;4.87;;;1.23;;
7575;SDS011;3829;50.798;4.358;2023-01-15T00:52:30;7.40;;;1.77;;
7575;SDS011;3829;50.798;4.358;2023-01-15T00:54:56;6.80;;;2.00;;
7575;SDS011;3829;50.798;4.358;2023-01-15T00:57:22;7.53;;;1.67;;
7575;SDS011;3829;50.798;4.358;2023-01-15T00:59:47;7.07;;;1.53;;
7575;SDS011;3829;50.798;4.358;2023-01-15T01:02:13;6.80;;;1.90;;
7575;SDS011;3829;50.798;4.358;2023-01-15T01:04:38;13.30;;;1.73;;
7575;SDS011;3829;50.798;4.358;2023-01-15T01:07:04;10.43;;;1.83;;
7575;SDS011;3829;50.798;4.358;2023-01-15T01:09:30;5.90;;;1.20;;
7575;SDS011;3829;50.798;4.358;2023-01-15T01:11:55;12.77;;;1.57;;
7575;SDS011;3829;50.798;4.358;2023-01-15T01:14:21;3.80;;;1.43;;
7575;SDS011;3829;50.798;4.358;2023-01-15T01:16:46;5.03;;;1.67;;
7575;SDS011;3829;50.798;4.358;2023-01-15T01:19:14;13.40;;;2.17;;
7575;SDS011;3829;50.798;4.358;2023-01-15T01:21:41;3.37;;;1.60;;
7575;SDS011;3829;50.798;4.358;2023-01-15T01:24:09;7.97;;;1.53;;
7575;SDS011;3829;50.798;4.358;2023-01-15T01:26:36;8.97;;;1.93;;
7575;SDS011;3829;50.798;4.358;2023-01-15T01:29:02;8.13;;;1.47;;
7575;SDS011;3829;50.798;4.358;2023-01-15T01:31:28;7.90;;;1.47;;
7575;SDS011;3829;50.798;4.358;2023-01-15T01:33:55;14.87;;;1.80;;
7575;SDS011;3829;50.798;4.358;2023-01-15T01:36:29;11.73;;;2.17;;
7575;SDS011;3829;50.798;4.358;2023-01-15T01:38:56;7.43;;;1.20;;
7575;SDS011;3829;50.798;4.358;2023-01-15T01:41:22;7.03;;;1.40;;
7575;SDS011;3829;50.798;4.358;2023-01-15T01:46:16;8.27;;;1.40;;
7575;SDS011;3829;50.798;4.358;2023-01-15T01:48:42;7.50;;;1.33;;
7575;SDS011;3829;50.798;4.358;2023-01-15T01:51:07;11.07;;;1.50;;
7575;SDS011;3829;50.798;4.358;2023-01-15T01:53:33;11.13;;;1.60;;
7575;SDS011;3829;50.798;4.358;2023-01-15T01:55:59;11.60;;;1.70;;
7575;SDS011;3829;50.798;4.358;2023-01-15T01:58:26;9.77;;;1.40;;
7575;SDS011;3829;50.798;4.358;2023-01-15T02:00:55;8.50;;;1.60;;
7575;SDS011;3829;50.798;4.358;2023-01-15T02:03:22;5.87;;;1.47;;
7575;SDS011;3829;50.798;4.358;2023-01-15T02:05:52;10.87;;;1.97;;
7575;SDS011;3829;50.798;4.358;2023-01-15T02:08:21;5.47;;;1.33;;
7575;SDS011;3829;50.798;4.358;2023-01-15T02:10:48;6.43;;;1.53;;
7575;SDS011;3829;50.798;4.358;2023-01-15T02:13:24;6.63;;;1.40;;
7575;SDS011;3829;50.798;4.358;2023-01-15T02:16:15;5.20;;;1.50;;
7575;SDS011;3829;50.798;4.358;2023-01-15T02:19:12;5.20;;;1.47;;
7575;SDS011;3829;50.798;4.358;2023-01-15T02:24:48;10.87;;;2.43;;
7575;SDS011;3829;50.798;4.358;2023-01-15T02:27:22;10.43;;;1.30;;
7575;SDS011;3829;50.798;4.358;2023-01-15T02:29:56;10.53;;;2.13;;
7575;SDS011;3829;50.798;4.358;2023-01-15T02:35:17;6.27;;;1.57;;
7575;SDS011;3829;50.798;4.358;2023-01-15T02:37:48;4.73;;;1.53;;
7575;SDS011;3829;50.798;4.358;2023-01-15T02:40:21;6.47;;;1.47;;
7575;SDS011;3829;50.798;4.358;2023-01-15T02:42:48;7.27;;;1.50;;
7575;SDS011;3829;50.798;4.358;2023-01-15T02:45:15;5.03;;;1.40;;
7575;SDS011;3829;50.798;4.358;2023-01-15T02:47:48;6.73;;;1.87;;
7575;SDS011;3829;50.798;4.358;2023-01-15T02:50:24;5.47;;;1.47;;
7575;SDS011;3829;50.798;4.358;2023-01-15T02:52:56;7.90;;;1.57;;
7575;SDS011;3829;50.798;4.358;2023-01-15T02:55:30;4.50;;;1.57;;
7575;SDS011;3829;50.798;4.358;2023-01-15T02:58:03;7.33;;;1.43;;
7575;SDS011;3829;50.798;4.358;2023-01-15T03:00:34;9.80;;;1.60;;
7575;SDS011;3829;50.798;4.358;2023-01-15T03:05:38;8.50;;;1.80;;
7575;SDS011;3829;50.798;4.358;2023-01-15T03:08:07;8.53;;;1.87;;
7575;SDS011;3829;50.798;4.358;2023-01-15T03:10:41;11.27;;;2.40;;
7575;SDS011;3829;50.798;4.358;2023-01-15T03:13:07;10.43;;;1.50;;
7575;SDS011;3829;50.798;4.358;2023-01-15T03:15:45;10.63;;;1.20;;
7575;SDS011;3829;50.798;4.358;2023-01-15T03:18:32;5.43;;;1.10;;
7575;SDS011;3829;50.798;4.358;2023-01-15T03:21:06;7.50;;;1.37;;
7575;SDS011;3829;50.798;4.358;2023-01-15T03:23:36;5.23;;;1.00;;
7575;SDS011;3829;50.798;4.358;2023-01-15T03:26:05;4.23;;;1.23;;
7575;SDS011;3829;50.798;4.358;2023-01-15T03:28:32;5.10;;;1.00;;
7575;SDS011;3829;50.798;4.358;2023-01-15T03:31:00;6.87;;;1.20;;
7575;SDS011;3829;50.798;4.358;2023-01-15T03:33:27;6.70;;;1.23;;
7575;SDS011;3829;50.798;4.358;2023-01-15T03:35:54;9.17;;;1.23;;
7575;SDS011;3829;50.798;4.358;2023-01-15T03:38:23;8.17;;;1.43;;
7575;SDS011;3829;50.798;4.358;2023-01-15T03:49:20;6.43;;;1.17;;
7575;SDS011;3829;50.798;4.358;2023-01-15T03:57:32;7.20;;;1.13;;
7575;SDS011;3829;50.798;4.358;2023-01-15T04:00:11;3.73;;;1.23;;
7575;SDS011;3829;50.798;4.358;2023-01-15T04:02:58;5.97;;;1.20;;
7575;SDS011;3829;50.798;4.358;2023-01-15T04:05:25;5.70;;;1.10;;
7575;SDS011;3829;50.798;4.358;2023-01-15T04:07:53;5.73;;;1.67;;
7575;SDS011;3829;50.798;4.358;2023-01-15T04:10:20;13.07;;;1.27;;
7575;SDS011;3829;50.798;4.358;2023-01-15T04:12:46;5.93;;;1.30;;
7575;SDS011;3829;50.798;4.358;2023-01-15T04:15:12;2.70;;;1.03;;
7575;SDS011;3829;50.798;4.358;2023-01-15T04:17:38;6.93;;;1.30;;
7575;SDS011;3829;50.798;4.358;2023-01-15T04:20:04;10.17;;;2.40;;
7575;SDS011;3829;50.798;4.358;2023-01-15T04:22:30;12.53;;;1.10;;
7575;SDS011;3829;50.798;4.358;2023-01-15T04:24:56;6.30;;;0.90;;
7575;SDS011;3829;50.798;4.358;2023-01-15T04:27:22;2.57;;;1.23;;
7575;SDS011;3829;50.798;4.358;2023-01-15T04:29:48;6.13;;;1.27;;
7575;SDS011;3829;50.798;4.358;2023-01-15T04:32:13;6.23;;;1.07;;
7575;SDS011;3829;50.798;4.358;2023-01-15T04:34:39;7.77;;;1.73;;
7575;SDS011;3829;50.798;4.358;2023-01-15T04:37:05;8.10;;;1.37;;
7575;SDS011;3829;50.798;4.358;2023-01-15T04:39:31;2.70;;;1.00;;
7575;SDS011;3829;50.798;4.358;2023-01-15T04:41:57;6.23;;;1.30;;
7575;SDS011;3829;50.798;4.358;2023-01-15T04:44:41;5.37;;;1.30;;
7575;SDS011;3829;50.798;4.358;2023-01-15T04:47:07;3.63;;;1.10;;
7575;SDS011;3829;50.798;4.358;2023-01-15T04:49:33;3.63;;;1.10;;
7575;SDS011;3829;50.798;4.358;2023-01-15T04:51:59;10.73;;;1.30;;
7575;SDS011;3829;50.798;4.358;2023-01-15T04:54:24;4.47;;;1.40;;
7575;SDS011;3829;50.798;4.358;2023-01-15T04:56:51;5.27;;;1.37;;
7575;SDS011;3829;50.798;4.358;2023-01-15T04:59:22;5.53;;;1.10;;
7575;SDS011;3829;50.798;4.358;2023-01-15T05:01:50;6.37;;;1.50;;
7575;SDS011;3829;50.798;4.358;2023-01-15T05:04:16;6.60;;;1.70;;
7575;SDS011;3829;50.798;4.358;2023-01-15T05:06:42;8.63;;;1.30;;
7575;SDS011;3829;50.798;4.358;2023-01-15T05:09:08;5.00;;;1.27;;
7575;SDS011;3829;50.798;4.358;2023-01-15T05:11:34;1.90;;;0.90;;
7575;SDS011;3829;50.798;4.358;2023-01-15T05:14:01;5.43;;;0.93;;
7575;SDS011;3829;50.798;4.358;2023-01-15T05:16:27;3.20;;;0.83;;
7575;SDS011;3829;50.798;4.358;2023-01-15T05:18:56;4.87;;;1.23;;
7575;SDS011;3829;50.798;4.358;2023-01-15T05:21:24;6.47;;;1.03;;
7575;SDS011;3829;50.798;4.358;2023-01-15T05:23:53;10.90;;;1.43;;
7575;SDS011;3829;50.798;4.358;2023-01-15T05:26:21;3.30;;;1.03;;
7575;SDS011;3829;50.798;4.358;2023-01-15T05:28:47;4.93;;;1.10;;
7575;SDS011;3829;50.798;4.358;2023-01-15T05:31:15;2.83;;;0.87;;
7575;SDS011;3829;50.798;4.358;2023-01-15T05:33:42;7.33;;;1.20;;
7575;SDS011;3829;50.798;4.358;2023-01-15T05:36:09;6.03;;;1.07;;
7575;SDS011;3829;50.798;4.358;2023-01-15T05:38:37;8.17;;;1.10;;
7575;SDS011;3829;50.798;4.358;2023-01-15T05:41:03;9.40;;;1.40;;
7575;SDS011;3829;50.798;4.358;2023-01-15T05:43:50;4.07;;;1.00;;
7575;SDS011;3829;50.798;4.358;2023-01-15T05:46:16;3.93;;;1.10;;
7575;SDS011;3829;50.798;4.358;2023-01-15T05:48:42;2.23;;;0.90;;
7575;SDS011;3829;50.798;4.358;2023-01-15T05:51:07;2.83;;;0.90;;
7575;SDS011;3829;50.798;4.358;2023-01-15T05:53:33;9.10;;;1.10;;
7575;SDS011;3829;50.798;4.358;2023-01-15T05:56:02;2.47;;;1.07;;
7575;SDS011;3829;50.798;4.358;2023-01-15T05:58:28;5.37;;;1.10;;
7575;SDS011;3829;50.798;4.358;2023-01-15T06:00:54;2.77;;;0.73;;
7575;SDS011;3829;50.798;4.358;2023-01-15T06:03:20;1.57;;;0.83;;
7575;SDS011;3829;50.798;4.358;2023-01-15T06:05:53;3.40;;;1.13;;
7575;SDS011;3829;50.798;4.358;2023-01-15T06:08:20;4.77;;;0.90;;
7575;SDS011;3829;50.798;4.358;2023-01-15T06:10:46;1.50;;;0.73;;
7575;SDS011;3829;50.798;4.358;2023-01-15T06:13:13;4.47;;;0.97;;
7575;SDS011;3829;50.798;4.358;2023-01-15T06:15:39;1.53;;;0.80;;
7575;SDS011;3829;50.798;4.358;2023-01-15T06:18:05;1.57;;;0.63;;
7575;SDS011;3829;50.798;4.358;2023-01-15T06:20:31;1.00;;;0.87;;
7575;SDS011;3829;50.798;4.358;2023-01-15T06:22:59;2.30;;;0.80;;
7575;SDS011;3829;50.798;4.358;2023-01-15T06:25:25;1.97;;;0.73;;
7575;SDS011;3829;50.798;4.358;2023-01-15T06:27:51;4.03;;;0.80;;
7575;SDS011;3829;50.798;4.358;2023-01-15T06:30:17;6.30;;;1.07;;
7575;SDS011;3829;50.798;4.358;2023-01-15T06:32:42;2.30;;;0.87;;
7575;SDS011;3829;50.798;4.358;2023-01-15T06:35:08;7.70;;;1.73;;
7575;SDS011;3829;50.798;4.358;2023-01-15T06:37:34;5.87;;;1.27;;
7575;SDS011;3829;50.798;4.358;2023-01-15T06:40:00;2.57;;;1.10;;
7575;SDS011;3829;50.798;4.358;2023-01-15T06:42:26;5.47;;;1.10;;
7575;SDS011;3829;50.798;4.358;2023-01-15T06:45:10;9.23;;;1.00;;
7575;SDS011;3829;50.798;4.358;2023-01-15T06:47:55;7.37;;;1.10;;
7575;SDS011;3829;50.798;4.358;2023-01-15T06:50:21;7.17;;;1.20;;
7575;SDS011;3829;50.798;4.358;2023-01-15T06:52:47;4.90;;;1.27;;
7575;SDS011;3829;50.798;4.358;2023-01-15T06:55:12;3.07;;;1.30;;
7575;SDS011;3829;50.798;4.358;2023-01-15T06:57:38;4.13;;;1.07;;
7575;SDS011;3829;50.798;4.358;2023-01-15T07:00:05;5.23;;;1.40;;
7575;SDS011;3829;50.798;4.358;2023-01-15T07:02:32;3.70;;;1.30;;
7575;SDS011;3829;50.798;4.358;2023-01-15T07:04:58;6.40;;;1.50;;
7575;SDS011;3829;50.798;4.358;2023-01-15T07:07:24;4.77;;;1.40;;
7575;SDS011;3829;50.798;4.358;2023-01-15T07:09:51;12.87;;;1.93;;
7575;SDS011;3829;50.798;4.358;2023-01-15T07:12:17;6.73;;;1.20;;
7575;SDS011;3829;50.798;4.358;2023-01-15T07:14:43;4.27;;;1.13;;
7575;SDS011;3829;50.798;4.358;2023-01-15T07:17:09;4.23;;;1.00;;
7575;SDS011;3829;50.798;4.358;2023-01-15T07:19:35;7.70;;;1.40;;
7575;SDS011;3829;50.798;4.358;2023-01-15T07:22:00;4.47;;;1.40;;
7575;SDS011;3829;50.798;4.358;2023-01-15T07:24:26;6.63;;;1.17;;
7575;SDS011;3829;50.798;4.358;2023-01-15T07:26:52;4.00;;;1.30;;
7575;SDS011;3829;50.798;4.358;2023-01-15T07:29:17;7.00;;;1.60;;
7575;SDS011;3829;50.798;4.358;2023-01-15T07:31:43;5.70;;;1.10;;
7575;SDS011;3829;50.798;4.358;2023-01-15T07:34:09;6.47;;;1.30;;
7575;SDS011;3829;50.798;4.358;2023-01-15T07:36:35;1.73;;;0.73;;
7575;SDS011;3829;50.798;4.358;2023-01-15T07:39:04;7.73;;;1.40;;
7575;SDS011;3829;50.798;4.358;2023-01-15T07:41:31;6.33;;;1.57;;
7575;SDS011;3829;50.798;4.358;2023-01-15T07:44:15;6.37;;;1.47;;
7575;SDS011;3829;50.798;4.358;2023-01-15T07:47:00;6.60;;;1.30;;
7575;SDS011;3829;50.798;4.358;2023-01-15T07:49:44;9.13;;;1.37;;
7575;SDS011;3829;50.798;4.358;2023-01-15T07:52:17;7.63;;;1.40;;
7575;SDS011;3829;50.798;4.358;2023-01-15T07:54:45;6.27;;;1.37;;
7575;SDS011;3829;50.798;4.358;2023-01-15T07:57:12;5.77;;;1.30;;
7575;SDS011;3829;50.798;4.358;2023-01-15T07:59:39;11.47;;;1.50;;
7575;SDS011;3829;50.798;4.358;2023-01-15T08:02:05;4.73;;;1.30;;
7575;SDS011;3829;50.798;4.358;2023-01-15T08:04:30;6.43;;;1.90;;
7575;SDS011;3829;50.798;4.358;2023-01-15T08:06:57;7.07;;;1.70;;
7575;SDS011;3829;50.798;4.358;2023-01-15T08:09:24;8.87;;;1.27;;
7575;SDS011;3829;50.798;4.358;2023-01-15T08:11:50;7.50;;;1.57;;
7575;SDS011;3829;50.798;4.358;2023-01-15T08:14:34;7.80;;;1.53;;
7575;SDS011;3829;50.798;4.358;2023-01-15T08:17:19;13.40;;;1.47;;
7575;SDS011;3829;50.798;4.358;2023-01-15T08:19:44;5.10;;;1.40;;
7575;SDS011;3829;50.798;4.358;2023-01-15T08:22:10;4.23;;;1.23;;
7575;SDS011;3829;50.798;4.358;2023-01-15T08:24:36;6.03;;;1.80;;
7575;SDS011;3829;50.798;4.358;2023-01-15T08:27:02;6.13;;;1.30;;
7575;SDS011;3829;50.798;4.358;2023-01-15T08:29:28;7.83;;;2.63;;
7575;SDS011;3829;50.798;4.358;2023-01-15T08:31:53;8.33;;;1.60;;
7575;SDS011;3829;50.798;4.358;2023-01-15T08:34:19;12.17;;;1.67;;
7575;SDS011;3829;50.798;4.358;2023-01-15T08:36:45;4.97;;;1.40;;
7575;SDS011;3829;50.798;4.358;2023-01-15T08:39:10;3.63;;;1.30;;
7575;SDS011;3829;50.798;4.358;2023-01-15T08:41:36;10.47;;;1.97;;
7575;SDS011;3829;50.798;4.358;2023-01-15T08:44:02;12.33;;;1.37;;
7575;SDS011;3829;50.798;4.358;2023-01-15T08:46:27;6.77;;;1.57;;
7575;SDS011;3829;50.798;4.358;2023-01-15T08:48:53;2.30;;;0.93;;
7575;SDS011;3829;50.798;4.358;2023-01-15T08:51:19;10.07;;;1.50;;
7575;SDS011;3829;50.798;4.358;2023-01-15T08:53:44;13.93;;;1.47;;
7575;SDS011;3829;50.798;4.358;2023-01-15T08:56:14;10.53;;;1.77;;
7575;SDS011;3829;50.798;4.358;2023-01-15T08:58:41;5.50;;;1.30;;
7575;SDS011;3829;50.798;4.358;2023-01-15T09:01:08;5.00;;;1.10;;
7575;SDS011;3829;50.798;4.358;2023-01-15T09:03:36;6.70;;;1.40;;
7575;SDS011;3829;50.798;4.358;2023-01-15T09:06:02;4.23;;;1.43;;
7575;SDS011;3829;50.798;4.358;2023-01-15T09:08:30;4.83;;;1.20;;
7575;SDS011;3829;50.798;4.358;2023-01-15T09:11:02;8.50;;;1.77;;
7575;SDS011;3829;50.798;4.358;2023-01-15T09:13:29;5.47;;;1.73;;
7575;SDS011;3829;50.798;4.358;2023-01-15T09:16:01;4.97;;;1.17;;
7575;SDS011;3829;50.798;4.358;2023-01-15T09:18:29;4.00;;;1.13;;
7575;SDS011;3829;50.798;4.358;2023-01-15T09:20:55;6.37;;;1.30;;
7575;SDS011;3829;50.798;4.358;2023-01-15T09:23:21;5.10;;;1.20;;
7575;SDS011;3829;50.798;4.358;2023-01-15T09:26:06;6.10;;;1.43;;
7575;SDS011;3829;50.798;4.358;2023-01-15T09:28:32;7.23;;;1.07;;
7575;SDS011;3829;50.798;4.358;2023-01-15T09:30:58;3.27;;;1.17;;
7575;SDS011;3829;50.798;4.358;2023-01-15T09:33:24;5.07;;;1.43;;
7575;SDS011;3829;50.798;4.358;2023-01-15T09:35:50;2.63;;;1.17;;
7575;SDS011;3829;50.798;4.358;2023-01-15T09:38:17;6.47;;;1.00;;
7575;SDS011;3829;50.798;4.358;2023-01-15T09:46:03;6.03;;;1.53;;
7575;SDS011;3829;50.798;4.358;2023-01-15T09:48:40;4.83;;;1.30;;
7575;SDS011;3829;50.798;4.358;2023-01-15T09:54:27;9.10;;;1.30;;
7575;SDS011;3829;50.798;4.358;2023-01-15T09:57:18;1.80;;;0.90;;
7575;SDS011;3829;50.798;4.358;2023-01-15T09:59:47;6.70;;;0.87;;
7575;SDS011;3829;50.798;4.358;2023-01-15T10:07:44;5.47;;;1.20;;
7575;SDS011;3829;50.798;4.358;2023-01-15T10:10:16;6.43;;;0.90;;
7575;SDS011;3829;50.798;4.358;2023-01-15T10:12:47;3.37;;;1.23;;
7575;SDS011;3829;50.798;4.358;2023-01-15T10:15:29;7.20;;;0.90;;
7575;SDS011;3829;50.798;4.358;2023-01-15T10:18:00;6.13;;;1.17;;
7575;SDS011;3829;50.798;4.358;2023-01-15T10:43:42;3.13;;;1.13;;
7575;SDS011;3829;50.798;4.358;2023-01-15T10:46:14;7.80;;;1.30;;
7575;SDS011;3829;50.798;4.358;2023-01-15T10:48:53;8.33;;;1.20;;
7575;SDS011;3829;50.798;4.358;2023-01-15T10:51:24;6.57;;;1.50;;
7575;SDS011;3829;50.798;4.358;2023-01-15T10:53:54;1.43;;;1.10;;
7575;SDS011;3829;50.798;4.358;2023-01-15T10:56:32;2.97;;;1.43;;
7575;SDS011;3829;50.798;4.358;2023-01-15T10:59:24;7.53;;;1.73;;
7575;SDS011;3829;50.798;4.358;2023-01-15T11:01:58;6.17;;;1.20;;
7575;SDS011;3829;50.798;4.358;2023-01-15T11:04:27;5.23;;;2.70;;
7575;SDS011;3829;50.798;4.358;2023-01-15T11:06:56;8.07;;;1.20;;
7575;SDS011;3829;50.798;4.358;2023-01-15T11:09:24;3.70;;;1.20;;
7575;SDS011;3829;50.798;4.358;2023-01-15T11:12:04;6.93;;;1.40;;
7575;SDS011;3829;50.798;4.358;2023-01-15T11:14:42;1.53;;;0.87;;
7575;SDS011;3829;50.798;4.358;2023-01-15T11:17:36;6.83;;;1.57;;
7575;SDS011;3829;50.798;4.358;2023-01-15T11:20:31;5.17;;;1.20;;
7575;SDS011;3829;50.798;4.358;2023-01-15T11:23:09;8.00;;;1.27;;
7575;SDS011;3829;50.798;4.358;2023-01-15T11:25:37;6.20;;;1.30;;
7575;SDS011;3829;50.798;4.358;2023-01-15T11:28:11;5.43;;;1.30;;
7575;SDS011;3829;50.798;4.358;2023-01-15T11:30:39;5.03;;;1.40;;
7575;SDS011;3829;50.798;4.358;2023-01-15T11:33:19;3.43;;;1.20;;
7575;SDS011;3829;50.798;4.358;2023-01-15T11:35:50;2.37;;;1.10;;
7575;SDS011;3829;50.798;4.358;2023-01-15T11:38:22;3.80;;;1.10;;
7575;SDS011;3829;50.798;4.358;2023-01-15T11:41:15;5.80;;;1.50;;
7575;SDS011;3829;50.798;4.358;2023-01-15T11:43:58;4.20;;;1.20;;
7575;SDS011;3829;50.798;4.358;2023-01-15T11:46:45;5.47;;;1.43;;
7575;SDS011;3829;50.798;4.358;2023-01-15T11:49:29;4.40;;;1.10;;
7575;SDS011;3829;50.798;4.358;2023-01-15T11:52:19;5.93;;;1.60;;
7575;SDS011;3829;50.798;4.358;2023-01-15T11:54:48;10.23;;;1.23;;
7575;SDS011;3829;50.798;4.358;2023-01-15T11:57:30;9.40;;;1.60;;
7575;SDS011;3829;50.798;4.358;2023-01-15T11:59:56;6.10;;;1.33;;
7575;SDS011;3829;50.798;4.358;2023-01-15T12:02:29;3.77;;;1.30;;
7575;SDS011;3829;50.798;4.358;2023-01-15T12:05:12;3.43;;;1.23;;
7575;SDS011;3829;50.798;4.358;2023-01-15T12:07:41;5.10;;;1.23;;
7575;SDS011;3829;50.798;4.358;2023-01-15T12:12:46;6.93;;;1.50;;
7575;SDS011;3829;50.798;4.358;2023-01-15T12:29:43;7.20;;;1.50;;
7575;SDS011;3829;50.798;4.358;2023-01-15T12:32:16;4.63;;;1.43;;
7575;SDS011;3829;50.798;4.358;2023-01-15T12:34:47;7.13;;;1.60;;
7575;SDS011;3829;50.798;4.358;2023-01-15T12:37:16;3.33;;;1.10;;
7575;SDS011;3829;50.798;4.358;2023-01-15T12:39:48;6.23;;;1.30;;
7575;SDS011;3829;50.798;4.358;2023-01-15T12:42:16;4.57;;;1.10;;
7575;SDS011;3829;50.798;4.358;2023-01-15T12:45:26;2.67;;;1.20;;
7575;SDS011;3829;50.798;4.358;2023-01-15T12:47:53;2.47;;;1.10;;
7575;SDS011;3829;50.798;4.358;2023-01-15T12:53:09;5.27;;;1.30;;
7575;SDS011;3829;50.798;4.358;2023-01-15T12:55:56;7.33;;;1.40;;
7575;SDS011;3829;50.798;4.358;2023-01-15T13:01:18;5.80;;;1.10;;
7575;SDS011;3829;50.798;4.358;2023-01-15T13:04:01;6.47;;;1.93;;
7575;SDS011;3829;50.798;4.358;2023-01-15T13:06:34;5.97;;;1.87;;
7575;SDS011;3829;50.798;4.358;2023-01-15T13:11:54;5.27;;;1.23;;
7575;SDS011;3829;50.798;4.358;2023-01-15T13:14:21;3.23;;;1.40;;
7575;SDS011;3829;50.798;4.358;2023-01-15T13:17:00;7.20;;;1.33;;
7575;SDS011;3829;50.798;4.358;2023-01-15T13:22:17;3.23;;;1.20;;
7575;SDS011;3829;50.798;4.358;2023-01-15T13:27:58;2.90;;;1.00;;
7575;SDS011;3829;50.798;4.358;2023-01-15T13:36:40;4.40;;;1.10;;
7575;SDS011;3829;50.798;4.358;2023-01-15T13:38:55;3.97;;;1.10;;
7575;SDS011;3829;50.798;4.358;2023-01-15T13:41:24;4.23;;;1.87;;
7575;SDS011;3829;50.798;4.358;2023-01-15T13:44:16;3.20;;;1.43;;
7575;SDS011;3829;50.798;4.358;2023-01-15T13:46:44;2.90;;;1.10;;
7575;SDS011;3829;50.798;4.358;2023-01-15T13:49:23;2.67;;;1.07;;
7575;SDS011;3829;50.798;4.358;2023-01-15T13:51:55;4.93;;;1.00;;
7575;SDS011;3829;50.798;4.358;2023-01-15T13:54:27;4.47;;;1.10;;
7575;SDS011;3829;50.798;4.358;2023-01-15T13:57:08;9.57;;;1.67;;
7575;SDS011;3829;50.798;4.358;2023-01-15T13:59:54;5.57;;;1.17;;
7575;SDS011;3829;50.798;4.358;2023-01-15T14:02:22;4.90;;;1.30;;
7575;SDS011;3829;50.798;4.358;2023-01-15T14:04:52;5.03;;;1.30;;
7575;SDS011;3829;50.798;4.358;2023-01-15T14:07:19;6.90;;;1.30;;
7575;SDS011;3829;50.798;4.358;2023-01-15T14:09:47;2.80;;;1.80;;
7575;SDS011;3829;50.798;4.358;2023-01-15T14:14:59;5.10;;;1.80;;
7575;SDS011;3829;50.798;4.358;2023-01-15T14:17:48;3.57;;;1.20;;
7575;SDS011;3829;50.798;4.358;2023-01-15T14:20:41;2.33;;;1.40;;
7575;SDS011;3829;50.798;4.358;2023-01-15T14:29:27;2.57;;;1.37;;
7575;SDS011;3829;50.798;4.358;2023-01-15T14:35:21;6.67;;;1.50;;
7575;SDS011;3829;50.798;4.358;2023-01-15T14:37:52;2.37;;;1.10;;
7575;SDS011;3829;50.798;4.358;2023-01-15T14:40:22;3.00;;;1.30;;
7575;SDS011;3829;50.798;4.358;2023-01-15T14:42:56;3.00;;;1.20;;
7575;SDS011;3829;50.798;4.358;2023-01-15T14:48:49;3.23;;;1.20;;
7575;SDS011;3829;50.798;4.358;2023-01-15T14:50:52;3.67;;;1.10;;
7575;SDS011;3829;50.798;4.358;2023-01-15T14:56:17;5.23;;;1.60;;
7575;SDS011;3829;50.798;4.358;2023-01-15T14:58:49;2.50;;;1.10;;
7575;SDS011;3829;50.798;4.358;2023-01-15T15:06:57;3.87;;;1.10;;
7575;SDS011;3829;50.798;4.358;2023-01-15T15:17:29;4.37;;;1.37;;
7575;SDS011;3829;50.798;4.358;2023-01-15T15:23:10;3.90;;;1.20;;
7575;SDS011;3829;50.798;4.358;2023-01-15T15:26:03;6.70;;;1.33;;
7575;SDS011;3829;50.798;4.358;2023-01-15T15:28:30;3.53;;;1.07;;
7575;SDS011;3829;50.798;4.358;2023-01-15T15:30:56;2.43;;;1.10;;
7575;SDS011;3829;50.798;4.358;2023-01-15T15:33:33;3.03;;;1.57;;
7575;SDS011;3829;50.798;4.358;2023-01-15T15:36:03;4.30;;;1.60;;
7575;SDS011;3829;50.798;4.358;2023-01-15T15:38:30;6.27;;;1.60;;
7575;SDS011;3829;50.798;4.358;2023-01-15T15:40:56;2.03;;;1.13;;
7575;SDS011;3829;50.798;4.358;2023-01-15T15:43:37;2.83;;;0.93;;
7575;SDS011;3829;50.798;4.358;2023-01-15T15:46:35;3.83;;;1.57;;
7575;SDS011;3829;50.798;4.358;2023-01-15T15:49:20;3.70;;;1.13;;
7575;SDS011;3829;50.798;4.358;2023-01-15T15:51:49;8.07;;;1.43;;
7575;SDS011;3829;50.798;4.358;2023-01-15T15:59:43;9.67;;;1.87;;
7575;SDS011;3829;50.798;4.358;2023-01-15T16:04:56;3.20;;;1.80;;
7575;SDS011;3829;50.798;4.358;2023-01-15T16:07:25;9.43;;;1.70;;
7575;SDS011;3829;50.798;4.358;2023-01-15T16:09:54;4.23;;;1.67;;
7575;SDS011;3829;50.798;4.358;2023-01-15T16:12:22;4.77;;;1.40;;
7575;SDS011;3829;50.798;4.358;2023-01-15T16:14:50;3.83;;;1.40;;
7575;SDS011;3829;50.798;4.358;2023-01-15T16:17:17;4.23;;;1.30;;
7575;SDS011;3829;50.798;4.358;2023-01-15T16:19:43;6.20;;;1.50;;
7575;SDS011;3829;50.798;4.358;2023-01-15T16:22:11;3.37;;;1.67;;
7575;SDS011;3829;50.798;4.358;2023-01-15T16:24:40;3.43;;;1.47;;
7575;SDS011;3829;50.798;4.358;2023-01-15T16:27:20;2.87;;;1.90;;
7575;SDS011;3829;50.798;4.358;2023-01-15T16:29:47;6.43;;;1.90;;
7575;SDS011;3829;50.798;4.358;2023-01-15T16:32:19;7.50;;;2.20;;
7575;SDS011;3829;50.798;4.358;2023-01-15T16:34:57;8.77;;;2.20;;
7575;SDS011;3829;50.798;4.358;2023-01-15T16:37:39;3.83;;;2.20;;
7575;SDS011;3829;50.798;4.358;2023-01-15T16:40:05;5.60;;;2.00;;
7575;SDS011;3829;50.798;4.358;2023-01-15T16:42:33;9.63;;;2.70;;
7575;SDS011;3829;50.798;4.358;2023-01-15T16:45:05;5.27;;;2.10;;
7575;SDS011;3829;50.798;4.358;2023-01-15T16:48:02;4.30;;;2.03;;
7575;SDS011;3829;50.798;4.358;2023-01-15T16:50:49;6.23;;;2.23;;
7575;SDS011;3829;50.798;4.358;2023-01-15T16:56:23;7.43;;;2.37;;
7575;SDS011;3829;50.798;4.358;2023-01-15T16:58:48;5.83;;;1.67;;
7575;SDS011;3829;50.798;4.358;2023-01-15T17:01:33;5.50;;;2.73;;
7575;SDS011;3829;50.798;4.358;2023-01-15T17:04:14;6.27;;;2.73;;
7575;SDS011;3829;50.798;4.358;2023-01-15T17:06:42;3.43;;;1.90;;
7575;SDS011;3829;50.798;4.358;2023-01-15T17:09:12;4.97;;;2.17;;
7575;SDS011;3829;50.798;4.358;2023-01-15T17:11:39;6.20;;;2.33;;
7575;SDS011;3829;50.798;4.358;2023-01-15T17:14:06;4.50;;;2.33;;
7575;SDS011;3829;50.798;4.358;2023-01-15T17:16:43;5.83;;;2.07;;
7575;SDS011;3829;50.798;4.358;2023-01-15T17:19:08;7.07;;;2.90;;
7575;SDS011;3829;50.798;4.358;2023-01-15T17:21:35;5.53;;;1.90;;
7575;SDS011;3829;50.798;4.358;2023-01-15T17:24:04;6.67;;;2.10;;
7575;SDS011;3829;50.798;4.358;2023-01-15T17:26:31;10.03;;;2.13;;
7575;SDS011;3829;50.798;4.358;2023-01-15T17:28:57;8.87;;;2.80;;
7575;SDS011;3829;50.798;4.358;2023-01-15T17:31:24;4.43;;;2.10;;
7575;SDS011;3829;50.798;4.358;2023-01-15T17:33:52;4.20;;;2.20;;
7575;SDS011;3829;50.798;4.358;2023-01-15T17:36:18;11.23;;;2.63;;
7575;SDS011;3829;50.798;4.358;2023-01-15T17:38:44;9.83;;;2.20;;
7575;SDS011;3829;50.798;4.358;2023-01-15T17:41:11;5.20;;;2.43;;
7575;SDS011;3829;50.798;4.358;2023-01-15T17:43:37;6.20;;;2.43;;
7575;SDS011;3829;50.798;4.358;2023-01-15T17:46:03;6.67;;;2.77;;
7575;SDS011;3829;50.798;4.358;2023-01-15T17:48:29;10.93;;;2.67;;
7575;SDS011;3829;50.798;4.358;2023-01-15T17:50:58;7.43;;;2.23;;
7575;SDS011;3829;50.798;4.358;2023-01-15T17:53:24;9.67;;;3.03;;
7575;SDS011;3829;50.798;4.358;2023-01-15T17:55:49;10.57;;;2.93;;
7575;SDS011;3829;50.798;4.358;2023-01-15T17:58:33;8.17;;;2.57;;
7575;SDS011;3829;50.798;4.358;2023-01-15T18:01:18;10.20;;;2.87;;